Agoura, California
Current Conditions -  °F | °C
As of 5:51 AM on Wednesday 26 Nov 2014 (Local Time) from KVNY Reporting Station
Clear Clear  
Wind Chill:   Ceiling: Unl
Heat Index:   Visibility: 10mi
Dew Point: -2°   Wind: 0mph
Humidity: 46%   Direction: NA
Pressure: 30.23"   Gusts: NA
Location:  34.1232°N, 118.77°W
Report Text: KVNY 261351Z 00000KT 10SM CLR 09/M02 A3023 RMK AO2 SLP232 T00891022
Loading
Personal Weather Stations






























Interactive Weather Map New forecast layout! Learn more

10-Day Weather Forecast

Advertisements
Track Severe Weather on mobile